This is the latest recevied weather packets stored in our database for station/object SIILIN. If no packets are shown the sender has not sent any weather packets the latest 1 day(s).
| Time | Temp. | Humidity | Pressure | Rain* | Wind** | Luminosity | Snow |
|---|---|---|---|---|---|---|---|
| 1778009241 | 5.56° C | 53% | 1006.2 hPa | - | 6.71 m/s, 261° | - | - |
| 1778008041 | 5.56° C | 54% | 1006 hPa | - | 6.71 m/s, 263° | - | - |
| 1778006841 | 6.11° C | 51% | 1005.8 hPa | - | 6.71 m/s, 265° | - | - |
| 1778005641 | 6.67° C | 50% | 1005.5 hPa | - | 6.26 m/s, 261° | - | - |
| 1778004441 | 6.67° C | 52% | 1005.2 hPa | - | 6.71 m/s, 256° | - | - |
| 1778003240 | 6.67° C | 47% | 1005 hPa | - | 8.05 m/s, 258° | - | - |
| 1778002040 | 7.22° C | 46% | 1004.9 hPa | - | 8.05 m/s, 260° | - | - |
| 1778000840 | 7.22° C | 47% | 1004.8 hPa | - | 8.49 m/s, 257° | - | - |
| 1777999640 | 7.78° C | 46% | 1004.7 hPa | - | 8.05 m/s, 263° | - | - |
| 1777998440 | 7.22° C | 47% | 1004.5 hPa | - | 8.05 m/s, 252° | - | - |
| 1777997240 | 7.22° C | 50% | 1004.5 hPa | - | 7.15 m/s, 266° | - | - |
| 1777996040 | 7.22° C | 47% | 1004.3 hPa | - | 6.71 m/s, 254° | - | - |
| 1777994840 | 7.22° C | 52% | 1004.3 hPa | - | 4.92 m/s, 248° | - | - |
| 1777993640 | 7.78° C | 41% | 1004.3 hPa | - | 5.81 m/s, 282° | - | - |
| 1777992440 | 7.22° C | 43% | 1004.3 hPa | - | 5.81 m/s, 270° | - | - |
| 1777991240 | 7.78° C | 42% | 1004 hPa | - | 6.71 m/s, 246° | - | - |
| 1777990039 | 7.78° C | 41% | 1004 hPa | - | 4.92 m/s, 257° | - | - |
| 1777988840 | 7.22° C | 45% | 1003.8 hPa | - | 7.6 m/s, 240° | - | - |
| 1777987639 | 7.22° C | 45% | 1003.8 hPa | - | 8.05 m/s, 254° | - | - |
| 1777986440 | 7.22° C | 46% | 1003.8 hPa | - | 6.71 m/s, 271° | - | - |
| 1777985239 | 6.67° C | 48% | 1003.6 hPa | - | 8.94 m/s, 258° | - | - |
| 1777984039 | 6.67° C | 54% | 1003.6 hPa | - | 7.6 m/s, 274° | - | - |
| 1777982839 | 6.67° C | 52% | 1003.5 hPa | - | 8.05 m/s, 277° | - | - |
| 1777981639 | 6.67° C | 44% | 1003.1 hPa | - | 8.05 m/s, 247° | - | - |
| 1777980439 | 6.67° C | 50% | 1003.1 hPa | - | 8.49 m/s, 264° | - | - |
* Rain since midnight (hover to see other rain measurements)
** Current wind speed in m/s (hover to see current wind gust speed)